Time;durP1;ratioP1;P1;durP2;ratioP2;P2;SDS_P1;SDS_P2;PMS_P1;PMS_P2;Temp;Humidity;BMP_temperature;BMP_pressure;BME280_temperature;BME280_humidity;BME280_pressure;Samples;Min_cycle;Max_cycle;Signal;HPM_P1;HPM_P2
2021/12/27 00:03:07;;;;;;;23.10;9.00;;;;;;;-5.15;99.99;99976.46;102221;1314;73340;-71
2021/12/27 00:05:56;;;;;;;20.30;7.40;;;;;;;-5.16;100.00;99977.16;102448;1310;68027;-71
2021/12/27 00:08:47;;;;;;;19.00;7.00;;;;;;;-5.15;99.96;99976.11;102785;1311;71677;-70
2021/12/27 00:11:39;;;;;;;15.20;5.60;;;;;;;-5.13;100.00;99975.58;102283;1316;59608;-70
2021/12/27 00:14:27;;;;;;;12.40;4.30;;;;;;;-5.15;99.92;99978.19;102130;1313;59924;-69
2021/12/27 00:17:15;;;;;;;11.80;4.20;;;;;;;-5.21;99.67;99976.90;102551;1310;73393;-70
2021/12/27 00:20:14;;;;;;;16.30;5.80;;;;;;;-5.28;99.76;99973.52;102647;1313;68038;-70
2021/12/27 00:23:01;;;;;;;14.70;5.00;;;;;;;-5.31;99.84;99975.30;101267;1310;1003606;-70
2021/12/27 00:25:49;;;;;;;16.30;5.20;;;;;;;-5.35;99.99;99978.47;101336;1313;1003209;-69
2021/12/27 00:28:37;;;;;;;20.40;7.70;;;;;;;-5.37;99.96;99976.61;102248;1317;60572;-69
2021/12/27 00:31:25;;;;;;;19.90;7.20;;;;;;;-5.35;99.96;99978.65;102079;1316;73205;-69
2021/12/27 00:34:13;;;;;;;22.10;7.50;;;;;;;-5.32;100.00;99978.09;102051;1313;67333;-69
2021/12/27 00:37:06;;;;;;;18.80;7.10;;;;;;;-5.31;100.00;99978.93;102045;1314;73258;-68
2021/12/27 00:39:54;;;;;;;17.70;7.20;;;;;;;-5.27;100.00;99978.71;102279;1313;59743;-69
2021/12/27 00:42:42;;;;;;;16.10;5.80;;;;;;;-5.22;100.00;99989.55;102251;1314;60716;-69
2021/12/27 00:45:30;;;;;;;14.30;5.20;;;;;;;-5.20;100.00;99987.45;102167;1313;71918;-69
2021/12/27 00:48:18;;;;;;;13.20;5.10;;;;;;;-5.20;99.99;99988.12;102051;1310;65981;-68
2021/12/27 00:51:08;;;;;;;11.70;4.20;;;;;;;-5.20;99.92;99991.06;102067;1310;72851;-68
2021/12/27 00:53:56;;;;;;;12.40;4.20;;;;;;;-5.22;99.82;99992.30;102042;1311;59702;-68
2021/12/27 00:56:44;;;;;;;15.10;5.40;;;;;;;-5.26;99.77;99991.16;102012;1317;61011;-68
2021/12/27 00:59:32;;;;;;;15.70;5.90;;;;;;;-5.31;99.59;99992.26;102153;1314;73279;-69
2021/12/27 01:02:20;;;;;;;16.10;5.70;;;;;;;-5.32;99.73;99991.23;102234;1310;68287;-68
2021/12/27 01:05:12;;;;;;;14.60;5.50;;;;;;;-5.32;99.69;99993.31;101832;1311;73152;-69
2021/12/27 01:08:00;;;;;;;13.30;4.50;;;;;;;-5.31;99.88;99993.82;102132;1314;59709;-68
2021/12/27 01:14:27;;;;;;;12.40;4.20;;;;;;;-5.34;99.29;99992.98;102040;1314;73702;-69
2021/12/27 01:17:08;;;;;;;12.80;4.30;;;;;;;-5.37;99.36;99990.27;102196;1311;68166;-68
2021/12/27 01:19:56;;;;;;;11.50;4.20;;;;;;;-5.40;99.19;99992.73;101971;1313;73016;-68
2021/12/27 01:22:44;;;;;;;9.90;3.80;;;;;;;-5.44;99.23;99995.90;102218;1316;59724;-68
2021/12/27 01:25:32;;;;;;;9.80;3.80;;;;;;;-5.48;99.43;99996.29;101995;1310;61114;-70
2021/12/27 01:28:20;;;;;;;11.50;4.30;;;;;;;-5.49;99.31;99995.60;102160;1310;73393;-69
2021/12/27 01:31:10;;;;;;;9.80;3.40;;;;;;;-5.50;99.37;99994.42;101956;1313;68149;-70
2021/12/27 01:33:58;;;;;;;14.30;4.90;;;;;;;-5.55;99.47;99994.65;102115;1310;74723;-69
2021/12/27 01:36:50;;;;;;;17.30;5.80;;;;;;;-5.55;99.40;99995.33;102071;1311;60213;-70
2021/12/27 01:39:41;;;;;;;17.30;5.90;;;;;;;-5.52;99.93;99993.23;102288;1316;59735;-70
2021/12/27 01:42:29;;;;;;;14.00;4.80;;;;;;;-5.47;99.99;99996.45;102168;1310;73166;-68
2021/12/27 01:45:23;;;;;;;12.00;4.10;;;;;;;-5.41;100.00;100003.80;102229;1310;68762;-69
2021/12/27 01:48:13;;;;;;;12.50;4.20;;;;;;;-5.34;100.00;100003.37;102238;1310;73056;-69
2021/12/27 01:51:03;;;;;;;13.30;4.60;;;;;;;-5.27;100.00;100000.84;102144;1314;59734;-70
2021/12/27 01:53:52;;;;;;;10.20;3.60;;;;;;;-5.23;100.00;100001.66;101647;1314;1002841;-69
2021/12/27 01:56:40;;;;;;;11.30;3.50;;;;;;;-5.21;100.00;100000.93;102591;1310;73483;-69
2021/12/27 01:59:28;;;;;;;10.00;3.30;;;;;;;-5.19;100.00;100000.56;102065;1316;66882;-70
2021/12/27 02:02:17;;;;;;;14.70;5.20;;;;;;;-5.18;100.00;99999.34;101963;1311;72820;-69
2021/12/27 02:05:06;;;;;;;14.90;5.30;;;;;;;-5.15;100.00;100000.86;102103;1314;60417;-70
2021/12/27 02:07:54;;;;;;;16.20;5.40;;;;;;;-5.12;100.00;100004.63;101854;1311;60721;-70
2021/12/27 02:10:43;;;;;;;17.40;5.70;;;;;;;-5.08;100.00;100001.80;101834;1317;72068;-69
2021/12/27 02:13:34;;;;;;;18.50;5.90;;;;;;;-5.03;100.00;100000.69;102121;1310;66350;-70
2021/12/27 02:16:22;;;;;;;14.20;4.60;;;;;;;-4.99;100.00;99999.77;102364;1314;73145;-70
2021/12/27 02:19:11;;;;;;;12.40;4.40;;;;;;;-4.98;100.00;100002.68;102241;1311;59718;-70
2021/12/27 02:21:59;;;;;;;9.10;3.10;;;;;;;-4.97;100.00;100001.45;102260;1316;60667;-70
2021/12/27 02:24:47;;;;;;;11.00;4.00;;;;;;;-4.97;100.00;99995.91;102056;1316;72902;-70
2021/12/27 02:27:36;;;;;;;12.00;3.90;;;;;;;-4.97;100.00;99995.23;102373;1311;66247;-70
2021/12/27 02:30:24;;;;;;;11.60;4.10;;;;;;;-4.98;100.00;99993.52;102673;1311;73088;-70
2021/12/27 02:33:13;;;;;;;12.70;4.90;;;;;;;-4.99;100.00;99989.19;101643;1316;1003881;-70
2021/12/27 02:36:02;;;;;;;20.40;7.00;;;;;;;-4.96;100.00;99987.60;102274;1316;60720;-70
2021/12/27 02:38:51;;;;;;;19.30;6.60;;;;;;;-4.92;100.00;99988.07;102193;1317;72184;-70
2021/12/27 02:41:39;;;;;;;18.90;7.00;;;;;;;-4.88;100.00;99990.59;102220;1314;68571;-70
2021/12/27 02:44:27;;;;;;;14.30;5.70;;;;;;;-4.84;100.00;99986.89;102173;1313;71305;-70
2021/12/27 02:47:16;;;;;;;14.70;5.50;;;;;;;-4.78;100.00;99989.58;101966;1319;59791;-70
2021/12/27 02:50:04;;;;;;;12.00;4.10;;;;;;;-4.75;100.00;99982.09;101959;1314;59982;-70
2021/12/27 02:52:53;;;;;;;11.20;4.40;;;;;;;-4.73;100.00;99984.64;102049;1319;73878;-70
2021/12/27 02:55:42;;;;;;;11.20;4.30;;;;;;;-4.75;100.00;99984.84;101795;1314;67419;-72
2021/12/27 02:58:30;;;;;;;12.30;4.50;;;;;;;-4.79;100.00;99982.67;102269;1314;72821;-70
2021/12/27 03:01:21;;;;;;;14.70;4.30;;;;;;;-4.85;99.98;99983.63;101569;1320;59820;-70
2021/12/27 03:04:09;;;;;;;13.10;4.80;;;;;;;-4.91;99.94;99982.50;101256;1320;1003447;-70
2021/12/27 03:06:57;;;;;;;14.10;5.60;;;;;;;-4.93;99.99;99983.06;101981;1317;72707;-69
2021/12/27 03:09:46;;;;;;;18.20;7.20;;;;;;;-4.96;99.87;99981.02;101556;1316;66908;-70
2021/12/27 03:12:38;;;;;;;24.30;7.90;;;;;;;-4.98;99.90;99979.84;101991;1316;70182;-69
2021/12/27 03:15:26;;;;;;;17.20;6.20;;;;;;;-5.00;99.82;99979.01;101973;1316;59803;-70
2021/12/27 03:18:16;;;;;;;16.10;6.50;;;;;;;-5.02;99.65;99983.36;101281;1316;1003149;-69
2021/12/27 03:21:07;;;;;;;13.00;5.20;;;;;;;-5.05;99.73;99981.52;102059;1310;72493;-69
2021/12/27 03:23:55;;;;;;;10.10;3.10;;;;;;;-5.08;99.30;99978.95;102093;1313;66914;-69
2021/12/27 03:26:49;;;;;;;11.00;3.70;;;;;;;-5.14;99.62;99981.29;102426;1311;71586;-70
2021/12/27 03:29:38;;;;;;;11.00;4.50;;;;;;;-5.22;99.40;99982.96;102055;1310;59710;-70
2021/12/27 03:32:27;;;;;;;10.20;3.70;;;;;;;-5.29;99.77;99984.27;102041;1310;59628;-70
2021/12/27 03:35:25;;;;;;;12.60;4.30;;;;;;;-5.34;99.77;99982.61;102091;1314;72193;-69
2021/12/27 03:38:12;;;;;;;10.70;3.80;;;;;;;-5.37;99.70;99980.06;102307;1310;65398;-68
2021/12/27 03:41:04;;;;;;;19.40;7.10;;;;;;;-5.45;99.70;99977.92;102061;1313;71633;-68
2021/12/27 03:43:52;;;;;;;18.30;6.40;;;;;;;-5.49;99.78;99977.62;102737;1310;59812;-68
2021/12/27 03:46:40;;;;;;;19.70;7.40;;;;;;;-5.50;99.58;99979.37;102853;1312;59682;-68
2021/12/27 03:49:29;;;;;;;17.90;6.70;;;;;;;-5.48;99.86;99977.10;101856;1313;1003194;-68
2021/12/27 03:52:17;;;;;;;15.20;5.40;;;;;;;-5.47;99.82;99972.94;102437;1314;66903;-68
2021/12/27 03:55:07;;;;;;;14.50;4.90;;;;;;;-5.50;99.56;99970.38;102120;1316;71568;-68
2021/12/27 03:58:06;;;;;;;13.20;4.70;;;;;;;-5.54;99.23;99970.95;102195;1313;59783;-68
2021/12/27 04:03:49;;;;;;;12.80;4.50;;;;;;;-5.73;99.24;99976.55;102199;1314;72183;-68
2021/12/27 04:06:37;;;;;;;11.60;4.40;;;;;;;-5.81;99.40;99977.16;102407;1310;66855;-68
2021/12/27 04:09:25;;;;;;;10.30;3.30;;;;;;;-5.88;99.11;99978.12;102020;1313;71661;-68
2021/12/27 04:12:12;;;;;;;16.20;6.40;;;;;;;-5.97;98.98;99976.69;101363;1317;1003174;-68
2021/12/27 04:15:01;;;;;;;24.40;8.50;;;;;;;-6.03;98.88;99977.80;102194;1316;59753;-68
2021/12/27 04:17:50;;;;;;;19.60;7.80;;;;;;;-6.06;98.89;99982.84;102277;1317;71840;-68
2021/12/27 04:20:39;;;;;;;21.60;7.50;;;;;;;-6.10;98.93;99991.02;102189;1316;66763;-68
2021/12/27 04:23:27;;;;;;;14.50;5.10;;;;;;;-6.15;98.91;99993.82;102170;1310;70485;-68
2021/12/27 04:26:16;;;;;;;17.00;5.90;;;;;;;-6.20;99.03;99996.29;101866;1317;59828;-68
2021/12/27 04:29:06;;;;;;;15.30;5.50;;;;;;;-6.24;99.05;99999.79;102252;1316;59744;-68
2021/12/27 04:31:54;;;;;;;14.90;5.70;;;;;;;-6.25;99.72;99997.73;102307;1316;73389;-69
2021/12/27 04:34:41;;;;;;;14.30;4.80;;;;;;;-6.29;99.08;99997.24;102154;1317;68161;-69
2021/12/27 04:37:32;;;;;;;14.50;4.70;;;;;;;-6.34;99.53;99996.77;102061;1315;71371;-70
2021/12/27 04:40:23;;;;;;;17.10;6.00;;;;;;;-6.40;99.51;99994.77;101451;1315;1004439;-69
2021/12/27 04:43:16;;;;;;;25.80;8.90;;;;;;;-6.44;99.31;99992.56;101835;1317;60032;-69
2021/12/27 04:46:06;;;;;;;23.70;8.70;;;;;;;-6.49;99.04;99991.40;102105;1316;72057;-69
2021/12/27 04:48:54;;;;;;;17.80;6.70;;;;;;;-6.52;98.96;99988.65;102129;1311;67377;-69
2021/12/27 04:51:43;;;;;;;13.70;5.20;;;;;;;-6.54;98.83;99988.15;101952;1310;70428;-70
2021/12/27 04:54:31;;;;;;;16.10;5.00;;;;;;;-6.59;98.65;99989.06;102127;1315;59665;-70
2021/12/27 04:57:19;;;;;;;13.50;4.70;;;;;;;-6.66;97.88;99991.70;102276;1317;59619;-69
2021/12/27 05:00:07;;;;;;;13.50;4.80;;;;;;;-6.73;97.96;99989.70;102173;1318;73801;-69
2021/12/27 05:02:55;;;;;;;9.20;3.10;;;;;;;-6.83;98.02;99995.48;102469;1313;66763;-69
2021/12/27 05:05:46;;;;;;;11.40;4.10;;;;;;;-6.93;97.36;99995.73;102026;1314;70758;-70
2021/12/27 05:08:34;;;;;;;13.40;4.70;;;;;;;-7.05;97.44;99995.81;101537;1313;1002512;-69
2021/12/27 05:11:22;;;;;;;12.50;4.80;;;;;;;-7.14;98.00;99997.06;102047;1317;59663;-70
2021/12/27 05:14:11;;;;;;;13.30;4.90;;;;;;;-7.23;97.64;99989.71;102068;1314;73800;-69
2021/12/27 05:17:00;;;;;;;18.40;6.10;;;;;;;-7.29;97.85;99991.64;102718;1318;65986;-71
2021/12/27 05:19:48;;;;;;;23.10;8.40;;;;;;;-7.33;97.58;99989.77;102166;1317;72963;-72
2021/12/27 05:22:40;;;;;;;21.90;8.20;;;;;;;-7.37;97.49;99989.44;102356;1316;59750;-72
2021/12/27 05:25:29;;;;;;;17.70;7.20;;;;;;;-7.39;97.37;99990.15;102097;1317;59795;-72
2021/12/27 05:28:19;;;;;;;16.90;7.20;;;;;;;-7.40;97.49;99985.33;102407;1313;73802;-71
2021/12/27 05:31:07;;;;;;;15.40;6.30;;;;;;;-7.40;97.78;99987.56;101433;1311;1003331;-73
2021/12/27 05:33:57;;;;;;;17.50;6.80;;;;;;;-7.39;97.74;99984.98;101888;1313;73108;-71
2021/12/27 05:36:45;;;;;;;18.10;6.20;;;;;;;-7.36;97.97;99984.11;103781;1313;59582;-73
2021/12/27 05:39:35;;;;;;;15.10;6.00;;;;;;;-7.32;97.87;99982.01;102375;1311;59796;-72
2021/12/27 05:42:23;;;;;;;15.50;5.50;;;;;;;-7.29;97.78;99981.30;102610;1314;73005;-71
2021/12/27 05:45:13;;;;;;;15.30;5.80;;;;;;;-7.30;97.33;99981.31;102285;1316;67093;-71
2021/12/27 05:48:07;;;;;;;14.50;5.90;;;;;;;-7.35;96.90;99980.83;102649;1317;71510;-72
2021/12/27 05:50:56;;;;;;;15.00;5.90;;;;;;;-7.42;96.84;99975.86;102680;1313;59724;-71
2021/12/27 05:53:44;;;;;;;15.80;5.90;;;;;;;-7.49;96.58;99974.52;102631;1317;59413;-71
2021/12/27 05:56:33;;;;;;;16.00;6.20;;;;;;;-7.57;96.51;99976.80;102633;1313;73632;-73
2021/12/27 05:59:21;;;;;;;16.30;5.50;;;;;;;-7.65;96.38;99978.91;102077;1316;66879;-70
2021/12/27 06:02:09;;;;;;;13.30;4.90;;;;;;;-7.72;96.78;99982.22;101498;1317;1003794;-71
2021/12/27 06:04:57;;;;;;;13.10;5.10;;;;;;;-7.80;96.32;99975.36;102501;1316;59798;-71
2021/12/27 06:07:46;;;;;;;17.70;6.00;;;;;;;-7.89;96.16;99971.43;101725;1310;1003137;-72
2021/12/27 06:10:35;;;;;;;23.20;8.30;;;;;;;-7.96;96.32;99973.87;102748;1314;70655;-71
2021/12/27 06:13:23;;;;;;;22.90;8.40;;;;;;;-7.99;96.57;99980.42;102517;1317;68330;-72
2021/12/27 06:16:12;;;;;;;18.20;6.40;;;;;;;-8.02;96.61;99979.06;102348;1310;71839;-71
2021/12/27 06:18:59;;;;;;;21.00;7.40;;;;;;;-8.04;96.81;99987.33;102990;1316;59838;-70
2021/12/27 06:21:49;;;;;;;19.40;6.90;;;;;;;-8.05;96.71;99991.80;102377;1311;60873;-70
2021/12/27 06:24:38;;;;;;;20.70;7.60;;;;;;;-8.06;97.01;99994.73;101696;1311;1003620;-71
2021/12/27 06:27:25;;;;;;;18.70;6.60;;;;;;;-8.04;97.10;99995.26;102041;1317;67054;-70
2021/12/27 06:30:15;;;;;;;17.80;6.50;;;;;;;-8.03;97.50;99995.41;102493;1311;74622;-71
2021/12/27 06:33:06;;;;;;;16.10;6.60;;;;;;;-8.00;97.73;99995.59;102412;1313;59618;-70
2021/12/27 06:35:55;;;;;;;13.70;5.20;;;;;;;-7.97;98.06;99998.15;102509;1314;59729;-71
2021/12/27 06:38:43;;;;;;;17.30;6.50;;;;;;;-7.95;98.08;100004.18;102334;1314;73735;-70
2021/12/27 06:41:31;;;;;;;18.00;7.10;;;;;;;-7.92;98.10;99998.83;102199;1318;67050;-73
2021/12/27 06:44:20;;;;;;;17.90;6.40;;;;;;;-7.91;97.71;99995.55;102720;1310;72180;-73
2021/12/27 06:47:08;;;;;;;15.90;5.90;;;;;;;-7.87;97.92;99998.98;102692;1318;59658;-73
2021/12/27 06:49:55;;;;;;;19.30;6.40;;;;;;;-7.83;97.54;100000.00;102417;1317;59788;-73
2021/12/27 06:52:44;;;;;;;15.30;5.40;;;;;;;-7.80;97.73;100004.48;102507;1317;72375;-73
2021/12/27 06:55:32;;;;;;;21.20;6.80;;;;;;;-7.78;97.90;100005.33;102632;1311;66782;-73
2021/12/27 06:58:19;;;;;;;19.10;7.10;;;;;;;-7.74;97.74;100008.08;102542;1310;70185;-74
2021/12/27 07:01:09;;;;;;;17.90;5.80;;;;;;;-7.70;97.43;100014.60;102393;1317;59800;-74
2021/12/27 07:03:57;;;;;;;18.90;7.70;;;;;;;-7.71;96.91;100012.89;102549;1316;59782;-72
2021/12/27 07:06:44;;;;;;;20.90;7.60;;;;;;;-7.72;96.60;100009.79;102625;1318;71989;-73
2021/12/27 07:09:33;;;;;;;23.70;8.10;;;;;;;-7.78;95.98;100007.56;102570;1317;67393;-73
2021/12/27 07:12:21;;;;;;;24.30;8.80;;;;;;;-7.82;96.22;100004.48;102658;1311;69997;-70
2021/12/27 07:15:09;;;;;;;20.90;7.30;;;;;;;-7.82;96.32;100001.21;102796;1310;59602;-70
2021/12/27 07:17:57;;;;;;;25.60;8.70;;;;;;;-7.83;96.24;99998.64;102920;1312;59574;-72
2021/12/27 07:20:45;;;;;;;23.40;8.90;;;;;;;-7.81;96.13;100002.73;102732;1317;72239;-73
2021/12/27 07:23:33;;;;;;;26.40;9.30;;;;;;;-7.79;95.78;100004.65;102488;1317;67071;-74
2021/12/27 07:26:24;;;;;;;22.80;8.80;;;;;;;-7.78;95.74;100006.36;102604;1310;73342;-73
2021/12/27 07:29:13;;;;;;;26.80;8.30;;;;;;;-7.76;95.55;100010.66;102461;1317;59745;-72
2021/12/27 07:32:02;;;;;;;26.40;9.90;;;;;;;-7.75;95.32;100011.17;102459;1310;59812;-73
2021/12/27 07:34:50;;;;;;;26.10;8.80;;;;;;;-7.76;94.72;100011.86;103257;1311;73667;-74
2021/12/27 07:37:40;;;;;;;26.10;9.20;;;;;;;-7.76;94.94;100015.48;102739;1314;66919;-72
2021/12/27 07:40:28;;;;;;;21.60;7.40;;;;;;;-7.76;94.97;100016.52;102505;1313;72957;-71
2021/12/27 07:43:16;;;;;;;26.10;9.00;;;;;;;-7.75;94.60;100022.20;102664;1310;59751;-71
2021/12/27 07:46:04;;;;;;;23.70;8.80;;;;;;;-7.76;94.64;100023.59;102640;1311;59679;-71
2021/12/27 07:48:52;;;;;;;26.00;7.90;;;;;;;-7.76;94.46;100025.65;102938;1310;71985;-72
2021/12/27 07:51:40;;;;;;;29.20;9.50;;;;;;;-7.77;94.16;100028.92;103080;1315;67104;-72
2021/12/27 07:54:27;;;;;;;23.70;8.20;;;;;;;-7.78;93.97;100029.27;102216;1314;1003688;-71
2021/12/27 07:57:15;;;;;;;24.90;8.10;;;;;;;-7.79;93.66;100027.20;102664;1313;59592;-71
2021/12/27 08:00:08;;;;;;;23.70;8.50;;;;;;;-7.82;93.21;100029.46;102516;1314;60061;-70
2021/12/27 08:03:02;;;;;;;24.60;7.10;;;;;;;-7.82;93.22;100031.35;102750;1314;71953;-70
2021/12/27 08:05:50;;;;;;;23.30;8.00;;;;;;;-7.83;92.89;100038.77;102650;1314;68196;-72
2021/12/27 08:08:37;;;;;;;20.10;7.20;;;;;;;-7.83;92.77;100044.27;102575;1314;73203;-71
2021/12/27 08:11:26;;;;;;;22.40;8.00;;;;;;;-7.85;92.50;100044.63;102684;1311;60541;-71
2021/12/27 08:14:14;;;;;;;23.60;9.30;;;;;;;-7.84;92.64;100043.23;102263;1311;59580;-72
2021/12/27 08:17:01;;;;;;;23.70;8.10;;;;;;;-7.82;92.61;100049.27;102552;1317;73264;-72
2021/12/27 08:19:49;;;;;;;23.20;7.40;;;;;;;-7.78;92.37;100050.46;102284;1317;66585;-71
2021/12/27 08:22:36;;;;;;;23.90;8.80;;;;;;;-7.75;91.29;100050.63;102276;1317;73092;-72
2021/12/27 08:25:25;;;;;;;24.80;8.90;;;;;;;-7.71;91.25;100046.13;102484;1314;59717;-71
2021/12/27 08:28:12;;;;;;;28.10;9.40;;;;;;;-7.46;90.85;100042.59;102643;1311;59621;-71
2021/12/27 08:31:01;;;;;;;29.30;11.30;;;;;;;-6.58;90.94;100043.25;102569;1314;73456;-71
2021/12/27 08:33:48;;;;;;;30.30;12.70;;;;;;;-5.08;88.11;100036.73;102646;1311;68280;-73
2021/12/27 08:36:36;;;;;;;30.10;12.50;;;;;;;-3.53;85.31;100034.26;102673;1314;71650;-72
2021/12/27 08:39:24;;;;;;;32.20;12.70;;;;;;;-2.00;82.34;100030.02;102429;1317;59805;-72
2021/12/27 08:42:12;;;;;;;35.70;13.70;;;;;;;-0.71;77.99;100025.05;102628;1314;60788;-72
2021/12/27 08:45:00;;;;;;;28.10;13.00;;;;;;;0.39;69.47;100014.02;102715;1310;72121;-72
2021/12/27 08:47:48;;;;;;;27.30;12.40;;;;;;;1.16;64.58;100009.35;102730;1311;67999;-72
2021/12/27 08:50:37;;;;;;;29.70;14.60;;;;;;;1.82;61.74;100010.17;102685;1316;73068;-72
2021/12/27 08:53:24;;;;;;;30.50;13.30;;;;;;;2.31;55.76;100008.95;102782;1314;59815;-72
2021/12/27 08:56:13;;;;;;;30.30;14.90;;;;;;;2.63;52.16;100003.67;102445;1316;59941;-72
2021/12/27 08:59:00;;;;;;;34.20;15.50;;;;;;;3.04;52.04;100004.05;102155;1311;1003093;-73
2021/12/27 09:01:47;;;;;;;32.10;16.10;;;;;;;3.18;48.06;100005.14;102774;1317;67214;-74
2021/12/27 09:04:35;;;;;;;35.50;17.30;;;;;;;3.35;49.29;100003.08;102624;1315;71010;-72
2021/12/27 09:07:24;;;;;;;38.10;17.50;;;;;;;3.79;48.22;100002.34;102730;1317;59746;-73
2021/12/27 09:10:11;;;;;;;42.70;19.60;;;;;;;4.09;47.02;100002.21;102559;1317;59606;-72
2021/12/27 09:13:00;;;;;;;44.00;20.60;;;;;;;4.32;46.32;99994.88;102893;1316;71660;-73
2021/12/27 09:15:48;;;;;;;44.20;21.60;;;;;;;4.57;45.26;99995.29;102364;1317;66951;-73
2021/12/27 09:18:37;;;;;;;44.50;20.30;;;;;;;4.89;44.62;99996.39;102622;1317;71605;-74
2021/12/27 09:21:25;;;;;;;46.10;21.70;;;;;;;4.94;43.02;99992.23;102395;1317;60175;-75
2021/12/27 09:24:13;;;;;;;41.60;21.50;;;;;;;5.32;44.24;99987.30;102658;1311;59666;-74
2021/12/27 09:27:01;;;;;;;43.30;20.80;;;;;;;5.71;41.58;99984.20;102744;1317;73688;-73
2021/12/27 09:30:11;;;;;;;39.30;17.70;;;;;;;6.25;41.28;99982.92;102767;1317;68359;-73
2021/12/27 09:32:59;;;;;;;37.70;16.50;;;;;;;6.76;40.62;99977.29;103113;1311;72909;-73
2021/12/27 09:35:47;;;;;;;46.20;16.00;;;;;;;7.05;39.03;99981.09;102763;1317;59724;-73
2021/12/27 09:38:36;;;;;;;32.10;15.30;;;;;;;7.49;38.96;99983.58;102511;1310;59782;-73
2021/12/27 09:41:25;;;;;;;26.80;14.50;;;;;;;8.28;39.73;99979.47;102430;1317;72198;-73
2021/12/27 09:44:13;;;;;;;27.20;15.40;;;;;;;8.60;36.24;99978.90;102650;1317;68277;-73
2021/12/27 09:47:01;;;;;;;25.20;13.90;;;;;;;8.87;36.06;99978.17;102320;1314;70725;-74
2021/12/27 09:49:50;;;;;;;25.70;13.50;;;;;;;9.30;35.83;99979.36;102515;1316;59716;-73
2021/12/27 09:52:47;;;;;;;30.10;15.80;;;;;;;9.26;34.29;99975.38;102789;1317;59779;-73
2021/12/27 09:55:36;;;;;;;33.20;15.20;;;;;;;9.03;33.21;99974.91;102538;1317;73496;-74
2021/12/27 09:58:24;;;;;;;26.50;14.80;;;;;;;9.13;34.56;99976.11;102534;1316;67830;-73
2021/12/27 10:01:12;;;;;;;29.80;14.50;;;;;;;9.49;34.51;99974.35;102668;1311;71571;-74
2021/12/27 10:04:02;;;;;;;27.50;14.50;;;;;;;9.69;33.25;99978.96;102333;1317;59699;-73
2021/12/27 10:06:51;;;;;;;26.10;13.70;;;;;;;9.67;32.49;99974.11;102361;1316;59676;-72
2021/12/27 10:09:42;;;;;;;26.90;12.50;;;;;;;9.65;33.31;99968.45;102174;1317;71467;-73
2021/12/27 10:12:30;;;;;;;22.90;11.60;;;;;;;9.69;33.09;99966.17;102513;1317;68262;-74
2021/12/27 10:15:22;;;;;;;22.30;11.60;;;;;;;10.13;33.30;99963.21;102574;1315;73049;-73
2021/12/27 10:18:13;;;;;;;21.30;12.70;;;;;;;10.19;31.70;99961.65;102510;1317;59746;-73
2021/12/27 10:21:01;;;;;;;22.70;13.00;;;;;;;10.05;33.06;99956.52;102190;1311;60736;-73
2021/12/27 10:23:48;;;;;;;21.60;12.10;;;;;;;10.29;33.27;99953.66;102445;1316;74130;-73
2021/12/27 10:26:37;;;;;;;20.20;13.80;;;;;;;10.03;31.72;99954.40;102923;1310;68117;-72
2021/12/27 10:29:35;;;;;;;22.20;14.10;;;;;;;9.66;32.56;99951.35;102576;1316;71897;-72
2021/12/27 10:32:22;;;;;;;21.50;14.40;;;;;;;9.26;32.69;99949.22;102645;1317;60142;-72
2021/12/27 10:35:11;;;;;;;21.80;13.70;;;;;;;9.02;32.90;99946.01;102370;1316;59698;-73
2021/12/27 10:38:23;;;;;;;21.40;14.90;;;;;;;8.72;32.52;99943.94;102550;1316;73498;-72
2021/12/27 10:41:13;;;;;;;20.50;13.40;;;;;;;8.01;33.03;99945.27;102514;1317;67239;-73
2021/12/27 10:44:01;;;;;;;18.60;12.80;;;;;;;7.88;34.39;99937.53;102032;1317;72052;-73
2021/12/27 10:47:27;;;;;;;15.70;11.30;;;;;;;7.89;34.51;99932.34;102364;1317;59751;-74
2021/12/27 10:50:28;;;;;;;18.00;11.40;;;;;;;7.69;34.44;99933.02;102344;1316;59698;-72
2021/12/27 10:53:16;;;;;;;19.80;12.90;;;;;;;7.86;34.65;99923.49;102482;1317;72268;-73
2021/12/27 10:56:03;;;;;;;19.60;12.10;;;;;;;7.71;34.85;99926.32;102285;1313;67945;-72
2021/12/27 10:59:00;;;;;;;17.20;11.60;;;;;;;7.91;35.00;99915.41;102804;1317;71562;-73
2021/12/27 11:01:50;;;;;;;18.70;12.80;;;;;;;7.93;34.58;99912.63;103150;1310;59703;-73
2021/12/27 11:04:38;;;;;;;17.80;10.90;;;;;;;7.96;34.25;99912.21;102578;1317;60096;-73
2021/12/27 11:07:26;;;;;;;17.40;11.30;;;;;;;7.79;34.37;99914.80;102845;1310;72628;-73
2021/12/27 11:10:13;;;;;;;20.00;11.20;;;;;;;7.71;34.31;99911.63;102411;1317;66890;-73
2021/12/27 11:13:04;;;;;;;18.70;10.60;;;;;;;7.33;34.29;99913.29;102525;1317;72132;-72
2021/12/27 11:15:52;;;;;;;19.10;11.00;;;;;;;6.80;34.72;99911.82;102569;1317;60360;-72
2021/12/27 11:18:39;;;;;;;21.80;11.60;;;;;;;6.78;36.26;99917.24;102388;1316;60692;-71
2021/12/27 11:21:41;;;;;;;18.40;12.00;;;;;;;6.90;35.62;99917.38;102757;1311;71965;-72
2021/12/27 11:24:28;;;;;;;20.10;11.40;;;;;;;7.10;36.47;99912.88;102656;1317;66927;-73
2021/12/27 11:27:16;;;;;;;20.10;11.30;;;;;;;7.18;35.96;99907.73;102191;1313;73061;-72
2021/12/27 11:30:11;;;;;;;21.30;11.80;;;;;;;7.09;36.61;99903.77;102067;1314;59825;-71
2021/12/27 11:33:13;;;;;;;22.00;12.60;;;;;;;6.88;36.17;99904.42;102230;1313;59777;-72
2021/12/27 11:36:01;;;;;;;23.10;13.20;;;;;;;6.42;36.92;99907.52;100744;1317;1003814;-72
2021/12/27 11:38:49;;;;;;;20.30;11.60;;;;;;;5.96;37.26;99902.23;102182;1313;68600;-71
2021/12/27 11:41:37;;;;;;;19.20;11.90;;;;;;;5.61;38.04;99903.78;102214;1317;71582;-71
2021/12/27 11:44:45;;;;;;;21.10;11.20;;;;;;;5.14;38.94;99907.20;102131;1317;60089;-71
2021/12/27 11:47:33;;;;;;;25.20;14.50;;;;;;;4.69;40.36;99904.80;102223;1314;60043;-70
2021/12/27 11:50:21;;;;;;;27.50;15.10;;;;;;;4.26;40.52;99904.20;102340;1317;73830;-70
2021/12/27 11:53:27;;;;;;;25.60;14.60;;;;;;;3.76;42.06;99912.61;101798;1316;67972;-72
2021/12/27 11:56:41;;;;;;;25.40;14.80;;;;;;;3.31;42.81;99916.44;102280;1313;70579;-71
2021/12/27 11:59:37;;;;;;;23.40;12.60;;;;;;;3.01;43.76;99906.35;102524;1310;59653;-71
2021/12/27 12:02:27;;;;;;;21.70;11.10;;;;;;;2.72;44.44;99905.84;102600;1316;60062;-70
2021/12/27 12:05:42;;;;;;;24.80;14.10;;;;;;;2.56;45.12;99903.77;102261;1317;71729;-70
2021/12/27 12:08:39;;;;;;;26.80;14.10;;;;;;;2.47;44.58;99907.54;102844;1315;68188;-70
2021/12/27 12:11:33;;;;;;;26.90;14.00;;;;;;;2.02;44.75;99903.78;102928;1311;71632;-70
2021/12/27 12:14:34;;;;;;;22.60;12.40;;;;;;;1.88;45.85;99905.46;101914;1311;1003745;-71
2021/12/27 12:17:40;;;;;;;22.30;13.10;;;;;;;1.39;45.72;99907.37;102479;1316;60304;-71
2021/12/27 12:20:36;;;;;;;26.80;14.60;;;;;;;1.01;46.55;99902.86;102713;1314;73423;-71
2021/12/27 12:23:24;;;;;;;22.40;11.60;;;;;;;0.88;47.21;99902.15;102355;1311;66794;-71
2021/12/27 12:26:14;;;;;;;22.90;11.40;;;;;;;0.75;47.25;99899.34;102733;1314;71977;-71
2021/12/27 12:29:03;;;;;;;24.20;12.90;;;;;;;0.37;47.52;99902.20;102497;1316;59818;-70
2021/12/27 12:32:01;;;;;;;22.90;11.70;;;;;;;-0.23;48.73;99904.41;102627;1314;60645;-70
2021/12/27 12:34:48;;;;;;;23.90;12.30;;;;;;;-1.06;50.70;99911.55;102608;1314;72257;-71
2021/12/27 12:37:35;;;;;;;23.80;9.60;;;;;;;-1.74;52.40;99907.56;102241;1313;69011;-71
2021/12/27 12:40:23;;;;;;;21.80;11.20;;;;;;;-2.36;54.28;99903.21;102539;1316;73443;-71
2021/12/27 12:43:11;;;;;;;23.80;11.30;;;;;;;-2.89;55.98;99907.71;102639;1310;59800;-71
2021/12/27 12:46:23;;;;;;;22.10;11.00;;;;;;;-3.41;57.32;99901.48;103002;1310;60712;-71
2021/12/27 12:49:20;;;;;;;22.90;10.70;;;;;;;-3.80;59.10;99898.87;102511;1316;72472;-70
2021/12/27 12:52:08;;;;;;;26.60;11.60;;;;;;;-4.13;60.49;99899.20;102529;1311;66727;-70
2021/12/27 12:54:56;;;;;;;27.70;12.10;;;;;;;-4.36;61.43;99897.58;102409;1316;70521;-71
2021/12/27 12:57:48;;;;;;;23.10;10.80;;;;;;;-4.53;62.45;99896.86;102748;1311;59790;-71
2021/12/27 13:00:36;;;;;;;24.30;10.80;;;;;;;-4.70;62.61;99897.69;102011;1313;1002917;-70
2021/12/27 13:03:24;;;;;;;23.20;10.70;;;;;;;-4.87;63.61;99896.23;101769;1314;1003158;-70